Mercimektepe XC Yamaç Paraşütü Mesafe Yarışması / Mercimek Tepe XC Open 2021

2021-07-06 to 2021-07-11, FAI Category 2 event

Task_1_Overall

2021-07-07 Task_1

Race to Goal 74.5 km

Provisional


# Id Name Nat Glider Sponsor SS ES Time
[h:m:s]
Speed
[km/h]
Distance
[km]
Dist.
Points
Lead.
Points
Time
Points
Total
1 666 Bernd Hohlmeier M GER ozone zeno gsc hochries 13:30:00 16:11:45 02:41:45 23.4 74.51 645.8 160.3 192.2 998.3
2 1117 Basat Okay M TUR Ozone Enzo 3 Aktivido.com - Albatros 13:30:00 16:11:50 02:41:50 23.4 74.51 645.8 154.2 191.7 991.7
3 85 Mohammad Kazem Gholi Pour M IRI Gin Boom 11 777-iran 13:30:00 16:14:18 02:44:18 23.1 74.51 645.8 162.0 183.1 990.9
4 17 Orkut Baysal M TUR Ozone Enzo 3 - 13:30:00 16:12:20 02:42:20 23.3 74.51 645.8 152.1 189.6 987.5
5 1111 Turkay Biliyor M TUR Dudek Coden Pro AYPSK, Dudek Paragliders 13:30:00 16:15:40 02:45:40 22.9 74.51 645.8 151.6 179.1 976.5
6 324 Kayvan Arianpour M IRI Skywalk Cayenne 6 13:30:00 16:12:06 02:42:06 23.4 74.51 645.8 113.7 190.5 950.0
7 4547 vedat kartal M TUR niviuk icepeak8 saruhanlı belediyesi havacılık kulübü 13:30:00 16:13:36 02:43:36 23.1 74.51 645.8 114.5 185.2 945.5
8 4 andac unsal M TUR Ozone Enzo 3 Ruzgarhavacilik 13:30:00 16:35:14 03:05:14 20.4 74.51 645.8 84.3 134.0 864.1
9 27 YILMAZ cansari M TUR Ozone delta 4 MAHAVK 13:30:00 17:06:53 03:36:53 17.5 74.51 645.8 79.5 73.7 799.0
10 624 serdar taze M TUR Ozone Delta 3 Albatros 13:30:00 17:11:27 03:41:27 17.1 74.51 645.8 70.2 65.6 781.6
11 267 Bora Alpay M TUR Flow XCRacer Woody Valley Türkiye / Flow Paragliders Türkiye / Albatros 13:30:00 16:45:20 03:15:20 19.4 73.23 634.6 118.7 753.3
12 28 Reha YAPALI M TUR Skywalk Cayenne 5 Muş Alparslan Universitesi 13:30:00 72.26 626.2 111.9 738.1
13 136 Akın MURAT M TUR Ozone Zeno THK Çankırı Sportif Havacılık Klübü 13:30:00 72.03 624.2 112.4 736.6
14 60 serdar sacti M TUR Ozone Enzo 3 Tuhak 13:30:00 69.93 606.1 130.3 736.4
15 413 Wladislav Kuzin M RUS Gin Leopard thm-holding.ru 13:30:00 70.50 611.0 120.7 731.7
16 76 Alparslan Camlıbel M TUR Ozone Enzo 3 My family 13:30:00 68.88 596.9 127.0 723.9
17 328 Durali Karaca M TUR Ozone Enzo 3 THSF 13:30:00 64.69 560.7 109.5 670.2
18 3455 Guven Gunduz M TUR Swing Nexus TULPAR SPORTİF HAVACILIK KULÜBÜ 13:30:00 66.78 578.7 65.5 644.2
19 444 Vitaliy Miroshnik M UKR 777 Queen-2 Tornado 13:30:00 65.91 571.2 70.1 641.3
20 468 Md Samsul Alam Khan Riad M BAN Ozone Mantra M7 Myself 13:30:00 66.10 572.9 46.9 619.8
21 15 Yüksel Koçyiğit M TUR Ozone Delta 2 Motto Telsiz 13:30:00 65.19 564.9 40.0 604.9
22 434 Mohsen Mansouri M IRI Gradient Aspen 6 Acronaline 13:30:00 59.23 513.3 36.8 550.1
23 7 Sinan çalışkan M TUR Ozone Zeno Özlem Çalışkan 13:30:00 58.87 510.2 31.5 541.7
24 1924 Gokhan Unal M TUR Skycross One Inonu aviation club 13:30:00 61.83 535.9 2.5 538.4
25 123 Seha Karaduman M TUR Sky paragliders Apollo 2 13:30:00 60.12 521.0 13.4 534.4
26 171 Mert Efe Ceylan M TUR Niviuk Artik 4 AYPSK, Gazi Havacılık 13:30:00 57.29 496.5 496.5
27 14 Onur Puryaz M TUR BGD Cure 2 Albatros 13:30:00 54.29 470.5 470.5
28 4040 Vahid Amirusefi M IRI 777 Queen 2 13:30:00 54.20 469.7 469.7
29 1999 Ertan Balkiraz M TUR Airdesign Rise 4 ANKA HAVACILIK 13:30:00 53.18 460.9 460.9
30 48 Bulent Genc M TUR Prodesign Accura 2- Buzz 5 13:30:00 49.10 425.5 425.5
31 2652 Necdet CELIK M TUR Air Design Volt 3 ANKA HAVACILIK 13:30:00 35.91 311.2 311.2
32 5205 Yalcin Demircioglu M TUR AirDesign Volt 3 ANKA HAVACILIK 13:30:00 27.51 238.4 238.4
33 6842 MUHAMMED DURHAN M TUR OZONE MANTRA M6 ANKA HAVACILIK 13:30:00 23.49 203.6 203.6
34 32 Vahit Çıldır M TUR Fly Ozone Delta 4 N/A 13:30:00 17.51 151.8 151.8
35 1583 Irfan Kosoglu M TUR OZONE DELTA 4 FAZ ELEKTRİK/AKYAS 13:30:00 17.17 148.8 148.8
36 30 Hakan Cagri Aksoy M TUR Triple Seven King 13:30:00 16.33 141.5 141.5
37 43 Cengiz GULTEKIN M TUR Ozone Delta 4 İzmir Yamaç Paraşütü Okulu 13:30:00 13.80 119.6 119.6
38 5506 selman soylemez M TUR AirDesign Rise 3 En-B ANKA HAVACILIK 13:30:00 11.14 96.5 96.5
39 513 Tarik YILDIRIM M TUR Aircross U-Cross Aircross Türkiye 13:30:00 10.22 88.6 88.6
40 1032 Halil Üstün M TUR Ozone Delta 3 TOROS HAVACILIK SK 13:30:00 9.24 80.0 80.0
41 5519 Durmus Kara M TUR Dudek Optic Osmancık Belediyesi 13:30:00 7.35 63.7 63.7
42 494 Masoud Mehrakizadeh M IRI Gin Boomerang 11 Cloud Base 13:30:00 7.27 63.0 63.0
43 3222 Seyda Uzun Zecic F TUR AIRDESIGN RISE 4 ANKA HAVACILIK 13:30:00 7.10 61.5 61.5
44 1920 Ferdi Karakuş M TUR Nova Mentor 4 Çorum sportif havacılık 13:30:00 7.08 61.4 61.4
45 61 Sedat KURT M TUR BGD Cure Samsun Yamaç Paraşütü Spor Kulübü 13:30:00 6.87 59.5 59.5
46 78 Hasan Tahsin Cervatoglu M TUR UP Trango X-Race 13:30:00 6.86 59.4 59.4
47 1234 Artun Bayrak M TUR Flow X ONE SKYPARAGLIDERS 13:30:00 5.73 49.7 49.7
48 52 Mesut Alp Poyraz M TUR Flow Fusion SDÜ havacılık kulübü 13:30:00 5.50 47.6 47.6
49 66 Ahmet Erden M TUR AirDesign Vita 2 13:30:00 5.22 45.2 45.2
50 1919 erhan sakalli M TUR icaro icaro buteo xc çorum sportif havacılık 13:30:00 5.01 43.4 43.4
51 525 Serdar Yildiz M TUR Triple Seven Quenn 2 Alaçatı Muhallebicisi 13:30:00 4.94 42.8 42.8
52 111 Kerem KUL M TUR Gin Carrera+ Ninova 13:30:00 4.93 42.7 42.7
53 2222 MUSTAFA BAYGIN M TUR UPXC4 SUMMITXC 4 AKYAS 13:30:00 3.75 32.5 32.5
54 8374 muharrem kılıç M TUR Ozone Zeno Ucari Sports Aviation 13:30:00 3.70 32.0 32.0
55 3361 Kenan Ustaoglu M TUR Skywalk Cayenne 5 13:30:00 3.00 26.0 26.0
55 19 Serdar YUCE M TUR Pro Design Accura 4 13:30:00 3.00 26.0 26.0
55 5 Cansu Atabey F TUR Ozone Delta 4 Albatros 13:30:00 3.00 26.0 26.0
55 73 Cenay Meder F TUR Flow Fusion Flow - Woody Valley 13:30:00 3.00 26.0 26.0
55 272 Kamuran Aydemir M TUR Ozone DELTA 3 AKYAS 3.00 26.0 26.0
55 646 Hakan Bayrak M TUR 777 King 3.00 26.0 26.0
55 11 ishak dogan demir M TUR Ozone Delta 4 albatros 3.00 26.0 26.0
55 787 Can Erdogan M TUR 777 Queen 2 13:30:00 3.00 26.0 26.0
55 127 Ömer Turgut M TUR niviuk Peak 5 GASHAK 13:30:00 3.00 26.0 26.0
55 8 Merve Kanmaz F TUR Skywalk Chili 4 Yusuf Doğu Bozdağ 3.00 26.0 26.0
55 4960 suleyman yildirim M TUR Niviuk Artık 2 Karain sportif havacılık kulübü 3.00 26.0 26.0
55 1453 oğuzhan aslan M TUR Ozone Buzz Z5 TULPAR 3.00 26.0 26.0
55 35 Salih ÜNLÜTÜRK M TUR UP Summit XC 4 İzmir Yamaç Paraşütü Okulu 13:30:00 3.00 26.0 26.0
55 5619 Tuba Arikan Bolat F TUR Airdesign Volt 3 Sinan Bolat 13:30:00 3.00 26.0 26.0
55 44 Mert Yücekaya M TUR Skywalk Cayenne 5 3.00 26.0 26.0
55 9191 Mehmet Yuksel M TUR Airdesing Rise 2 ANKA HAVACILIK 13:30:00 3.00 26.0 26.0
55 24 Turgut Celikdogan M TUR Airdesign Rise4 YAVUZ MOTOR 13:30:00 3.00 26.0 26.0
55 101 Yasin Demiryürek M TUR Gin Gto 2 UÇUŞ KULUBÜ - AYPSK - GAZİ HAVACILIK 13:30:00 3.00 26.0 26.0
55 999 Andrea Graf F GER Advance Pi2 HoMo consulting 13:30:00 3.00 26.0 26.0
55 45 Seçkin Aparı M TUR UP Summit XC 4 Izmir yamacparasutu okulu 13:30:00 3.00 26.0 26.0
55 100 Mahmut Hopur M TUR Ozone Mantra M7 Mahavk 3.00 26.0 26.0
ABS 12 Merve Gülşah Arslan F TUR Flow XCRacer BEYSUKENT KOLEJİ / ANAKAMP 0.0

Task definition

No Leg Dist. Id Radius Open Close Coordinates Altitude
1 0.0 km D01114 100 m 12:30 14:00 Lat: 40.34833 Lon: 36.16955 1145 m
2 SS 1.8 km B05076 9000 m 13:30 18:00 Lat: 40.31217 Lon: 36.05372 768 m
3 7.5 km B05076 5000 m 13:30 18:00 Lat: 40.31217 Lon: 36.05372 768 m
4 13.2 km B05076 9000 m 13:30 18:00 Lat: 40.31217 Lon: 36.05372 768 m
5 19.0 km B05076 5000 m 13:30 18:00 Lat: 40.31217 Lon: 36.05372 768 m
6 46.4 km A55077 8000 m 13:30 18:00 Lat: 40.20763 Lon: 35.67573 775 m
7 56.1 km B19140 8000 m 13:30 18:00 Lat: 40.04539 Lon: 35.69477 1408 m
8 ES 72.9 km A11105 2000 m 13:30 18:00 Lat: 39.99883 Lon: 35.96197 1050 m
9 74.5 km A11105 400 m 13:30 18:00 Lat: 39.99883 Lon: 35.96197 1050 m

Pilots not yet processed (NYP)

Id Name

Task statistics

param value
ss_distance 63.119
task_distance 74.514
launch_to_ess_distance 72.915
no_of_pilots_present 75
no_of_pilots_flying 75
no_of_pilots_lo 65
no_of_pilots_reaching_nom_dist 31
no_of_pilots_reaching_es 11
no_of_pilots_reaching_goal 10
sum_flown_distance 2316.351
best_dist 74.514
best_time 2.6958
worst_time 3.6908
qnh_setting 1013.25
no_of_pilots_in_competition 76
no_of_pilots_landed_before_stop 0
sum_dist_over_min 2110.341
sum_real_dist_over_min 2110.341
sum_flown_distances 2316.351
best_real_dist 74.514
last_start_time 2021-07-07T13:30:00+03:00
first_start_time 2021-07-07T13:30:00+03:00
first_finish_time 2021-07-07T16:11:45+03:00
max_time_to_get_time_points 4.3377
goalratio 0.1333
arrival_weight 0
departure_weight 0
leading_weight 0.162
time_weight 0.1922
distance_weight 0.6458
smallest_leading_coefficient 2.0205
available_points_distance 645.7727
available_points_time 192.2273
available_points_departure 0
available_points_leading 162
available_points_arrival 0
time_validity 1
launch_validity 1
distance_validity 1
stop_validity 1
day_quality 1
ftv_day_validity 0.9983
time_points_stop_correction 0

Scoring formula settings

param value
id GAP2020
use_distance_points 1
use_time_points 1
use_leading_points 1
min_dist 3
nom_dist 30
nom_time 1
nom_goal 0.1
nom_launch 0.9
day_quality 1
time_points_if_not_in_goal 0
jump_the_gun_factor 0
normalize_1000_before_day_quality 0
time_validity_based_on_pilot_with_speed_rank 1
day_quality_override 0
bonus_gr 4
jump_the_gun_max 0
use_1000_points_for_max_day_quality 0
use_arrival_position_points 0
use_arrival_time_points 0
use_departure_points 0
use_difficulty_for_distance_points 0
use_distance_squared_for_LC 0
use_semi_circle_control_zone_for_goal_line 1
scoring_altitude GPS
final_glide_decelerator none
no_final_glide_decelerator_reason
min_time_span_for_valid_task 30
score_back_time 5
use_proportional_leading_weight_if_nobody_in_goal 1
leading_weight_factor 1
turnpoint_radius_tolerance 0.005
turnpoint_radius_minimum_absolute_tolerance 5
number_of_decimals_task_results 1
number_of_decimals_competition_results 0
redistribute_removed_time_points_as_distance_points 1
use_best_score_for_ftv_validity 1
use_constant_leading_weight 1
use_pwca2019_for_lc 1
use_flat_decline_of_timepoints 1
Report created: 2021-07-07T20:47:28+03:00

FS development, maintenance and support by